Terminal Aerodrome Forecast
Issued by NWS

Home | Current Version | Previous Version | Text Only | Print | Product List | Glossary On
Versions: 1 2 3 4 5 6 7 8 9 10 11 12 13 14 15 16 17 18 19
000
FTUS41 KPBZ 270900 AAB
TAFMGW
TAF AMD
KMGW 270900Z 2709/2806 00000KT P6SM OVC006
      TEMPO 2709/2711 4SM BR OVC012
     FM271500 33003KT 3SM -SG BR OVC008
     FM272000 30010KT 6SM -SHSN OVC015=

USA.gov is the U.S. government's official web portal to all federal, state and local government web resources and services.